sensor_id;sensor_type;location;lat;lon;timestamp;P1;durP1;ratioP1;P2;durP2;ratioP2
5904;SDS011;2978;42.012;24.880;2023-04-01T00:01:22;7.70;;;2.93;;
5904;SDS011;2978;42.012;24.880;2023-04-01T00:03:47;3.90;;;2.50;;
5904;SDS011;2978;42.012;24.880;2023-04-01T00:06:14;8.53;;;3.83;;
5904;SDS011;2978;42.012;24.880;2023-04-01T00:08:41;9.33;;;6.37;;
5904;SDS011;2978;42.012;24.880;2023-04-01T00:11:07;14.63;;;7.00;;
5904;SDS011;2978;42.012;24.880;2023-04-01T00:13:33;10.80;;;4.40;;
5904;SDS011;2978;42.012;24.880;2023-04-01T00:15:58;10.20;;;5.03;;
5904;SDS011;2978;42.012;24.880;2023-04-01T00:18:24;13.00;;;5.60;;
5904;SDS011;2978;42.012;24.880;2023-04-01T00:20:50;9.17;;;6.20;;
5904;SDS011;2978;42.012;24.880;2023-04-01T00:23:17;12.30;;;5.57;;
5904;SDS011;2978;42.012;24.880;2023-04-01T00:25:44;14.07;;;6.60;;
5904;SDS011;2978;42.012;24.880;2023-04-01T00:28:10;14.20;;;6.37;;
5904;SDS011;2978;42.012;24.880;2023-04-01T00:30:36;12.70;;;5.77;;
5904;SDS011;2978;42.012;24.880;2023-04-01T00:33:02;9.13;;;6.40;;
5904;SDS011;2978;42.012;24.880;2023-04-01T00:35:28;9.87;;;6.60;;
5904;SDS011;2978;42.012;24.880;2023-04-01T00:37:53;10.10;;;5.90;;
5904;SDS011;2978;42.012;24.880;2023-04-01T00:40:27;10.40;;;6.23;;
5904;SDS011;2978;42.012;24.880;2023-04-01T00:42:55;13.73;;;6.47;;
5904;SDS011;2978;42.012;24.880;2023-04-01T00:47:52;10.07;;;5.97;;
5904;SDS011;2978;42.012;24.880;2023-04-01T00:50:18;16.07;;;7.00;;
5904;SDS011;2978;42.012;24.880;2023-04-01T00:52:44;9.47;;;6.27;;
5904;SDS011;2978;42.012;24.880;2023-04-01T00:55:11;11.87;;;6.63;;
5904;SDS011;2978;42.012;24.880;2023-04-01T00:57:41;15.00;;;6.30;;
5904;SDS011;2978;42.012;24.880;2023-04-01T01:00:11;13.80;;;7.60;;
5904;SDS011;2978;42.012;24.880;2023-04-01T01:02:38;9.63;;;6.73;;
5904;SDS011;2978;42.012;24.880;2023-04-01T01:05:06;14.93;;;7.83;;
5904;SDS011;2978;42.012;24.880;2023-04-01T01:10:34;15.07;;;6.83;;
5904;SDS011;2978;42.012;24.880;2023-04-01T01:13:14;9.90;;;5.90;;
5904;SDS011;2978;42.012;24.880;2023-04-01T01:15:57;9.40;;;6.60;;
5904;SDS011;2978;42.012;24.880;2023-04-01T01:18:58;12.87;;;6.20;;
5904;SDS011;2978;42.012;24.880;2023-04-01T01:27:16;14.10;;;5.87;;
5904;SDS011;2978;42.012;24.880;2023-04-01T01:37:42;15.83;;;6.30;;
5904;SDS011;2978;42.012;24.880;2023-04-01T01:40:11;13.83;;;5.97;;
5904;SDS011;2978;42.012;24.880;2023-04-01T01:42:38;11.50;;;5.17;;
5904;SDS011;2978;42.012;24.880;2023-04-01T01:45:08;10.83;;;6.37;;
5904;SDS011;2978;42.012;24.880;2023-04-01T01:47:36;10.23;;;5.47;;
5904;SDS011;2978;42.012;24.880;2023-04-01T01:50:02;11.07;;;5.53;;
5904;SDS011;2978;42.012;24.880;2023-04-01T01:52:30;12.37;;;5.37;;
5904;SDS011;2978;42.012;24.880;2023-04-01T01:54:56;8.93;;;5.83;;
5904;SDS011;2978;42.012;24.880;2023-04-01T01:57:24;9.23;;;5.20;;
5904;SDS011;2978;42.012;24.880;2023-04-01T01:59:55;7.47;;;4.63;;
5904;SDS011;2978;42.012;24.880;2023-04-01T02:02:25;10.00;;;4.80;;
5904;SDS011;2978;42.012;24.880;2023-04-01T02:04:52;7.17;;;4.73;;
5904;SDS011;2978;42.012;24.880;2023-04-01T02:07:28;9.33;;;5.13;;
5904;SDS011;2978;42.012;24.880;2023-04-01T02:09:58;10.90;;;4.83;;
5904;SDS011;2978;42.012;24.880;2023-04-01T02:12:24;12.50;;;4.57;;
5904;SDS011;2978;42.012;24.880;2023-04-01T02:15:09;8.60;;;4.50;;
5904;SDS011;2978;42.012;24.880;2023-04-01T02:17:38;7.60;;;5.20;;
5904;SDS011;2978;42.012;24.880;2023-04-01T02:20:10;9.70;;;5.00;;
5904;SDS011;2978;42.012;24.880;2023-04-01T02:22:41;11.70;;;5.20;;
5904;SDS011;2978;42.012;24.880;2023-04-01T02:25:13;15.63;;;5.37;;
5904;SDS011;2978;42.012;24.880;2023-04-01T02:27:41;7.40;;;5.50;;
5904;SDS011;2978;42.012;24.880;2023-04-01T02:30:08;15.83;;;6.43;;
5904;SDS011;2978;42.012;24.880;2023-04-01T02:32:34;5.87;;;4.40;;
5904;SDS011;2978;42.012;24.880;2023-04-01T02:35:04;4.83;;;4.27;;
5904;SDS011;2978;42.012;24.880;2023-04-01T02:37:32;6.30;;;4.57;;
5904;SDS011;2978;42.012;24.880;2023-04-01T02:40:04;13.53;;;5.07;;
5904;SDS011;2978;42.012;24.880;2023-04-01T02:42:32;8.97;;;4.57;;
5904;SDS011;2978;42.012;24.880;2023-04-01T02:44:58;7.53;;;5.70;;
5904;SDS011;2978;42.012;24.880;2023-04-01T02:47:24;9.00;;;4.90;;
5904;SDS011;2978;42.012;24.880;2023-04-01T02:49:49;11.50;;;5.90;;
5904;SDS011;2978;42.012;24.880;2023-04-01T02:52:15;6.97;;;4.57;;
5904;SDS011;2978;42.012;24.880;2023-04-01T02:54:40;6.07;;;5.03;;
5904;SDS011;2978;42.012;24.880;2023-04-01T02:57:06;9.70;;;5.20;;
5904;SDS011;2978;42.012;24.880;2023-04-01T02:59:31;9.63;;;4.93;;
5904;SDS011;2978;42.012;24.880;2023-04-01T03:01:57;6.67;;;5.00;;
5904;SDS011;2978;42.012;24.880;2023-04-01T03:04:23;6.90;;;4.87;;
5904;SDS011;2978;42.012;24.880;2023-04-01T03:06:48;7.10;;;4.77;;
5904;SDS011;2978;42.012;24.880;2023-04-01T03:09:13;9.93;;;5.80;;
5904;SDS011;2978;42.012;24.880;2023-04-01T03:11:39;8.53;;;6.07;;
5904;SDS011;2978;42.012;24.880;2023-04-01T03:14:05;9.33;;;6.37;;
5904;SDS011;2978;42.012;24.880;2023-04-01T03:16:32;14.27;;;6.27;;
5904;SDS011;2978;42.012;24.880;2023-04-01T03:18:57;8.97;;;5.80;;
5904;SDS011;2978;42.012;24.880;2023-04-01T03:21:25;13.20;;;5.90;;
5904;SDS011;2978;42.012;24.880;2023-04-01T03:23:51;12.43;;;6.17;;
5904;SDS011;2978;42.012;24.880;2023-04-01T03:26:16;8.17;;;6.13;;
5904;SDS011;2978;42.012;24.880;2023-04-01T03:28:43;12.10;;;5.77;;
5904;SDS011;2978;42.012;24.880;2023-04-01T03:31:08;14.97;;;5.97;;
5904;SDS011;2978;42.012;24.880;2023-04-01T03:33:34;11.57;;;6.00;;
5904;SDS011;2978;42.012;24.880;2023-04-01T03:35:59;16.20;;;6.33;;
5904;SDS011;2978;42.012;24.880;2023-04-01T03:38:25;18.03;;;12.27;;
5904;SDS011;2978;42.012;24.880;2023-04-01T03:40:51;23.53;;;11.30;;
5904;SDS011;2978;42.012;24.880;2023-04-01T03:43:16;15.43;;;8.27;;
5904;SDS011;2978;42.012;24.880;2023-04-01T03:45:45;14.93;;;8.20;;
5904;SDS011;2978;42.012;24.880;2023-04-01T03:48:12;13.87;;;7.20;;
5904;SDS011;2978;42.012;24.880;2023-04-01T03:50:38;14.73;;;7.10;;
5904;SDS011;2978;42.012;24.880;2023-04-01T03:53:03;15.43;;;9.07;;
5904;SDS011;2978;42.012;24.880;2023-04-01T03:55:29;16.70;;;8.90;;
5904;SDS011;2978;42.012;24.880;2023-04-01T03:57:54;18.03;;;8.57;;
5904;SDS011;2978;42.012;24.880;2023-04-01T04:00:19;11.37;;;7.50;;
5904;SDS011;2978;42.012;24.880;2023-04-01T04:02:45;18.93;;;7.83;;
5904;SDS011;2978;42.012;24.880;2023-04-01T04:05:10;17.87;;;8.97;;
5904;SDS011;2978;42.012;24.880;2023-04-01T04:07:37;15.80;;;8.50;;
5904;SDS011;2978;42.012;24.880;2023-04-01T04:10:03;16.23;;;8.60;;
5904;SDS011;2978;42.012;24.880;2023-04-01T04:12:28;19.50;;;8.60;;
5904;SDS011;2978;42.012;24.880;2023-04-01T04:14:54;21.80;;;9.43;;
5904;SDS011;2978;42.012;24.880;2023-04-01T04:17:19;27.03;;;8.97;;
5904;SDS011;2978;42.012;24.880;2023-04-01T04:19:45;21.37;;;7.80;;
5904;SDS011;2978;42.012;24.880;2023-04-01T04:22:10;13.20;;;7.37;;
5904;SDS011;2978;42.012;24.880;2023-04-01T04:24:35;12.83;;;7.90;;
5904;SDS011;2978;42.012;24.880;2023-04-01T04:27:01;13.33;;;7.23;;
5904;SDS011;2978;42.012;24.880;2023-04-01T04:29:27;11.43;;;6.20;;
5904;SDS011;2978;42.012;24.880;2023-04-01T04:31:52;11.07;;;6.43;;
5904;SDS011;2978;42.012;24.880;2023-04-01T04:34:18;14.93;;;6.20;;
5904;SDS011;2978;42.012;24.880;2023-04-01T04:36:43;11.70;;;6.73;;
5904;SDS011;2978;42.012;24.880;2023-04-01T04:39:09;12.90;;;5.97;;
5904;SDS011;2978;42.012;24.880;2023-04-01T04:41:36;12.57;;;6.17;;
5904;SDS011;2978;42.012;24.880;2023-04-01T04:44:02;15.80;;;6.27;;
5904;SDS011;2978;42.012;24.880;2023-04-01T04:46:28;9.80;;;6.80;;
5904;SDS011;2978;42.012;24.880;2023-04-01T04:48:53;19.73;;;6.40;;
5904;SDS011;2978;42.012;24.880;2023-04-01T04:51:19;17.40;;;9.43;;
5904;SDS011;2978;42.012;24.880;2023-04-01T04:53:45;17.00;;;9.80;;
5904;SDS011;2978;42.012;24.880;2023-04-01T04:56:11;19.00;;;9.00;;
5904;SDS011;2978;42.012;24.880;2023-04-01T04:58:37;23.60;;;9.70;;
5904;SDS011;2978;42.012;24.880;2023-04-01T05:01:09;15.07;;;9.90;;
5904;SDS011;2978;42.012;24.880;2023-04-01T05:03:36;22.53;;;11.07;;
5904;SDS011;2978;42.012;24.880;2023-04-01T05:06:02;19.70;;;10.90;;
5904;SDS011;2978;42.012;24.880;2023-04-01T05:08:28;21.40;;;10.07;;
5904;SDS011;2978;42.012;24.880;2023-04-01T05:10:53;32.73;;;19.87;;
5904;SDS011;2978;42.012;24.880;2023-04-01T05:13:19;27.23;;;19.73;;
5904;SDS011;2978;42.012;24.880;2023-04-01T05:15:45;32.40;;;21.70;;
5904;SDS011;2978;42.012;24.880;2023-04-01T05:18:10;59.17;;;35.70;;
5904;SDS011;2978;42.012;24.880;2023-04-01T05:20:36;47.07;;;27.77;;
5904;SDS011;2978;42.012;24.880;2023-04-01T05:23:02;37.50;;;20.30;;
5904;SDS011;2978;42.012;24.880;2023-04-01T05:25:28;42.20;;;21.00;;
5904;SDS011;2978;42.012;24.880;2023-04-01T05:27:53;38.30;;;20.77;;
5904;SDS011;2978;42.012;24.880;2023-04-01T05:30:19;37.53;;;22.20;;
5904;SDS011;2978;42.012;24.880;2023-04-01T05:32:45;41.50;;;27.00;;
5904;SDS011;2978;42.012;24.880;2023-04-01T05:35:10;43.73;;;28.67;;
5904;SDS011;2978;42.012;24.880;2023-04-01T05:37:36;42.63;;;24.13;;
5904;SDS011;2978;42.012;24.880;2023-04-01T05:40:02;23.77;;;15.23;;
5904;SDS011;2978;42.012;24.880;2023-04-01T05:42:29;16.10;;;10.27;;
5904;SDS011;2978;42.012;24.880;2023-04-01T05:44:54;17.30;;;9.83;;
5904;SDS011;2978;42.012;24.880;2023-04-01T05:47:21;34.07;;;13.20;;
5904;SDS011;2978;42.012;24.880;2023-04-01T05:49:47;32.30;;;19.90;;
5904;SDS011;2978;42.012;24.880;2023-04-01T05:52:12;35.57;;;23.03;;
5904;SDS011;2978;42.012;24.880;2023-04-01T05:54:38;29.37;;;18.27;;
5904;SDS011;2978;42.012;24.880;2023-04-01T05:57:03;19.27;;;14.40;;
5904;SDS011;2978;42.012;24.880;2023-04-01T05:59:29;26.80;;;12.13;;
5904;SDS011;2978;42.012;24.880;2023-04-01T06:01:56;18.43;;;10.10;;
5904;SDS011;2978;42.012;24.880;2023-04-01T06:04:22;22.93;;;11.50;;
5904;SDS011;2978;42.012;24.880;2023-04-01T06:06:47;19.40;;;11.57;;
5904;SDS011;2978;42.012;24.880;2023-04-01T06:09:21;26.43;;;12.73;;
5904;SDS011;2978;42.012;24.880;2023-04-01T06:12:05;29.37;;;14.83;;
5904;SDS011;2978;42.012;24.880;2023-04-01T06:25:54;8.63;;;5.83;;
5904;SDS011;2978;42.012;24.880;2023-04-01T06:31:24;16.00;;;8.67;;
5904;SDS011;2978;42.012;24.880;2023-04-01T06:55:29;13.13;;;6.63;;
5904;SDS011;2978;42.012;24.880;2023-04-01T06:58:03;9.13;;;4.50;;
5904;SDS011;2978;42.012;24.880;2023-04-01T07:00:37;9.30;;;6.03;;
5904;SDS011;2978;42.012;24.880;2023-04-01T07:05:45;11.07;;;7.97;;
5904;SDS011;2978;42.012;24.880;2023-04-01T07:08:12;11.63;;;6.77;;
5904;SDS011;2978;42.012;24.880;2023-04-01T07:10:44;14.80;;;7.07;;
5904;SDS011;2978;42.012;24.880;2023-04-01T07:13:58;11.33;;;6.00;;
5904;SDS011;2978;42.012;24.880;2023-04-01T07:16:18;7.70;;;5.30;;
5904;SDS011;2978;42.012;24.880;2023-04-01T07:21:48;9.80;;;5.90;;
5904;SDS011;2978;42.012;24.880;2023-04-01T07:24:27;18.23;;;6.33;;
5904;SDS011;2978;42.012;24.880;2023-04-01T07:26:57;9.40;;;5.60;;
5904;SDS011;2978;42.012;24.880;2023-04-01T07:29:23;9.40;;;6.30;;
5904;SDS011;2978;42.012;24.880;2023-04-01T07:34:30;16.43;;;5.33;;
5904;SDS011;2978;42.012;24.880;2023-04-01T07:37:15;12.07;;;5.57;;
5904;SDS011;2978;42.012;24.880;2023-04-01T07:50:27;9.27;;;5.13;;
5904;SDS011;2978;42.012;24.880;2023-04-01T07:55:40;11.07;;;5.43;;
5904;SDS011;2978;42.012;24.880;2023-04-01T08:15:10;16.10;;;10.30;;
5904;SDS011;2978;42.012;24.880;2023-04-01T08:21:02;13.07;;;7.93;;
5904;SDS011;2978;42.012;24.880;2023-04-01T08:23:44;13.20;;;8.73;;
5904;SDS011;2978;42.012;24.880;2023-04-01T08:26:14;10.63;;;6.10;;
5904;SDS011;2978;42.012;24.880;2023-04-01T08:29:17;14.23;;;6.90;;
5904;SDS011;2978;42.012;24.880;2023-04-01T08:34:39;11.63;;;8.13;;
5904;SDS011;2978;42.012;24.880;2023-04-01T08:37:20;15.33;;;8.77;;
5904;SDS011;2978;42.012;24.880;2023-04-01T08:39:58;12.30;;;5.33;;
5904;SDS011;2978;42.012;24.880;2023-04-01T08:42:31;8.80;;;4.70;;
5904;SDS011;2978;42.012;24.880;2023-04-01T08:45:25;10.73;;;4.50;;
5904;SDS011;2978;42.012;24.880;2023-04-01T08:50:53;19.37;;;5.00;;
5904;SDS011;2978;42.012;24.880;2023-04-01T09:01:51;12.27;;;5.40;;
5904;SDS011;2978;42.012;24.880;2023-04-01T09:04:38;7.10;;;4.23;;
5904;SDS011;2978;42.012;24.880;2023-04-01T09:07:45;12.50;;;6.23;;
5904;SDS011;2978;42.012;24.880;2023-04-01T09:10:20;9.20;;;4.20;;
5904;SDS011;2978;42.012;24.880;2023-04-01T09:29:19;14.97;;;5.53;;
5904;SDS011;2978;42.012;24.880;2023-04-01T09:32:14;12.37;;;5.87;;
5904;SDS011;2978;42.012;24.880;2023-04-01T09:35:36;14.30;;;5.30;;
5904;SDS011;2978;42.012;24.880;2023-04-01T09:46:42;14.13;;;4.70;;
5904;SDS011;2978;42.012;24.880;2023-04-01T09:54:58;14.63;;;6.00;;
5904;SDS011;2978;42.012;24.880;2023-04-01T10:14:03;14.30;;;5.20;;
5904;SDS011;2978;42.012;24.880;2023-04-01T10:17:01;16.83;;;5.67;;
5904;SDS011;2978;42.012;24.880;2023-04-01T10:20:08;15.73;;;6.73;;
5904;SDS011;2978;42.012;24.880;2023-04-01T10:53:36;9.20;;;4.50;;
5904;SDS011;2978;42.012;24.880;2023-04-01T11:12:43;12.50;;;5.00;;
5904;SDS011;2978;42.012;24.880;2023-04-01T11:18:41;7.90;;;5.03;;
5904;SDS011;2978;42.012;24.880;2023-04-01T11:24:09;24.00;;;5.93;;
5904;SDS011;2978;42.012;24.880;2023-04-01T11:29:43;10.83;;;5.07;;
5904;SDS011;2978;42.012;24.880;2023-04-01T11:32:29;9.50;;;4.50;;
5904;SDS011;2978;42.012;24.880;2023-04-01T11:46:10;13.60;;;5.17;;
5904;SDS011;2978;42.012;24.880;2023-04-01T11:48:47;9.60;;;5.53;;
5904;SDS011;2978;42.012;24.880;2023-04-01T11:51:47;6.90;;;4.50;;
5904;SDS011;2978;42.012;24.880;2023-04-01T12:06:02;9.93;;;4.67;;
5904;SDS011;2978;42.012;24.880;2023-04-01T12:11:37;9.30;;;4.57;;
5904;SDS011;2978;42.012;24.880;2023-04-01T12:14:16;9.03;;;4.57;;
5904;SDS011;2978;42.012;24.880;2023-04-01T12:17:09;7.50;;;4.30;;
5904;SDS011;2978;42.012;24.880;2023-04-01T12:52:12;16.73;;;6.20;;
5904;SDS011;2978;42.012;24.880;2023-04-01T13:06:32;15.37;;;6.37;;
5904;SDS011;2978;42.012;24.880;2023-04-01T13:25:23;10.27;;;5.30;;
5904;SDS011;2978;42.012;24.880;2023-04-01T13:28:12;9.87;;;5.00;;
5904;SDS011;2978;42.012;24.880;2023-04-01T13:33:31;12.23;;;4.90;;
5904;SDS011;2978;42.012;24.880;2023-04-01T13:36:07;10.70;;;5.23;;
5904;SDS011;2978;42.012;24.880;2023-04-01T13:44:02;13.03;;;6.83;;
5904;SDS011;2978;42.012;24.880;2023-04-01T13:46:47;14.47;;;5.97;;
5904;SDS011;2978;42.012;24.880;2023-04-01T13:58:00;15.37;;;6.70;;
5904;SDS011;2978;42.012;24.880;2023-04-01T14:08:47;100.30;;;10.60;;
5904;SDS011;2978;42.012;24.880;2023-04-01T14:12:13;22.13;;;7.87;;
5904;SDS011;2978;42.012;24.880;2023-04-01T14:17:40;12.40;;;6.37;;
5904;SDS011;2978;42.012;24.880;2023-04-01T14:20:19;15.63;;;5.77;;
5904;SDS011;2978;42.012;24.880;2023-04-01T14:41:36;8.70;;;4.57;;
5904;SDS011;2978;42.012;24.880;2023-04-01T14:50:09;10.10;;;4.87;;
5904;SDS011;2978;42.012;24.880;2023-04-01T14:52:40;6.43;;;4.40;;
5904;SDS011;2978;42.012;24.880;2023-04-01T14:55:20;8.60;;;4.47;;
5904;SDS011;2978;42.012;24.880;2023-04-01T15:03:28;5.63;;;3.40;;
5904;SDS011;2978;42.012;24.880;2023-04-01T15:09:13;13.50;;;3.63;;
5904;SDS011;2978;42.012;24.880;2023-04-01T15:20:09;6.17;;;3.60;;
5904;SDS011;2978;42.012;24.880;2023-04-01T15:28:59;6.60;;;3.23;;
5904;SDS011;2978;42.012;24.880;2023-04-01T15:31:50;10.93;;;3.50;;
5904;SDS011;2978;42.012;24.880;2023-04-01T15:34:44;5.77;;;3.23;;
5904;SDS011;2978;42.012;24.880;2023-04-01T15:50:54;5.57;;;3.97;;
5904;SDS011;2978;42.012;24.880;2023-04-01T15:56:36;6.50;;;5.40;;
5904;SDS011;2978;42.012;24.880;2023-04-01T16:02:25;8.50;;;5.23;;
5904;SDS011;2978;42.012;24.880;2023-04-01T16:10:58;10.93;;;6.03;;
5904;SDS011;2978;42.012;24.880;2023-04-01T16:22:23;10.73;;;7.00;;
5904;SDS011;2978;42.012;24.880;2023-04-01T16:27:56;13.13;;;6.37;;
5904;SDS011;2978;42.012;24.880;2023-04-01T16:30:44;9.13;;;4.30;;
5904;SDS011;2978;42.012;24.880;2023-04-01T16:39:22;9.80;;;4.93;;
5904;SDS011;2978;42.012;24.880;2023-04-01T16:44:31;12.93;;;5.23;;
5904;SDS011;2978;42.012;24.880;2023-04-01T16:47:15;14.00;;;7.53;;
5904;SDS011;2978;42.012;24.880;2023-04-01T16:50:05;14.23;;;8.83;;
5904;SDS011;2978;42.012;24.880;2023-04-01T16:52:48;13.07;;;9.50;;
5904;SDS011;2978;42.012;24.880;2023-04-01T16:55:50;16.70;;;10.50;;
5904;SDS011;2978;42.012;24.880;2023-04-01T16:58:23;11.87;;;7.17;;
5904;SDS011;2978;42.012;24.880;2023-04-01T17:00:58;9.70;;;5.60;;
5904;SDS011;2978;42.012;24.880;2023-04-01T17:03:36;7.67;;;3.57;;
5904;SDS011;2978;42.012;24.880;2023-04-01T17:11:24;3.50;;;2.53;;
5904;SDS011;2978;42.012;24.880;2023-04-01T17:16:50;2.43;;;2.23;;
5904;SDS011;2978;42.012;24.880;2023-04-01T17:30:25;8.27;;;3.70;;
5904;SDS011;2978;42.012;24.880;2023-04-01T17:33:06;3.50;;;3.03;;
5904;SDS011;2978;42.012;24.880;2023-04-01T17:41:08;8.33;;;2.67;;
5904;SDS011;2978;42.012;24.880;2023-04-01T18:23:11;5.70;;;3.90;;
5904;SDS011;2978;42.012;24.880;2023-04-01T18:25:48;3.97;;;3.33;;
5904;SDS011;2978;42.012;24.880;2023-04-01T18:28:22;8.40;;;3.63;;
5904;SDS011;2978;42.012;24.880;2023-04-01T18:31:03;5.03;;;3.03;;
5904;SDS011;2978;42.012;24.880;2023-04-01T18:33:40;4.10;;;2.53;;
5904;SDS011;2978;42.012;24.880;2023-04-01T18:41:40;3.30;;;1.53;;
5904;SDS011;2978;42.012;24.880;2023-04-01T18:52:25;1.23;;;1.13;;
5904;SDS011;2978;42.012;24.880;2023-04-01T18:57:26;1.70;;;1.57;;
5904;SDS011;2978;42.012;24.880;2023-04-01T19:00:04;4.97;;;1.70;;
5904;SDS011;2978;42.012;24.880;2023-04-01T19:02:45;1.63;;;1.37;;
5904;SDS011;2978;42.012;24.880;2023-04-01T19:05:19;5.10;;;1.60;;
5904;SDS011;2978;42.012;24.880;2023-04-01T19:07:52;2.77;;;1.50;;
5904;SDS011;2978;42.012;24.880;2023-04-01T19:10:31;2.10;;;1.77;;
5904;SDS011;2978;42.012;24.880;2023-04-01T19:21:58;4.00;;;2.40;;
5904;SDS011;2978;42.012;24.880;2023-04-01T19:27:46;4.03;;;1.80;;
5904;SDS011;2978;42.012;24.880;2023-04-01T19:30:40;7.53;;;2.70;;
5904;SDS011;2978;42.012;24.880;2023-04-01T19:33:28;9.27;;;2.47;;
5904;SDS011;2978;42.012;24.880;2023-04-01T19:38:53;4.37;;;2.27;;
5904;SDS011;2978;42.012;24.880;2023-04-01T19:41:32;2.57;;;2.23;;
5904;SDS011;2978;42.012;24.880;2023-04-01T19:47:31;1.83;;;1.50;;
5904;SDS011;2978;42.012;24.880;2023-04-01T19:52:42;3.33;;;2.03;;
5904;SDS011;2978;42.012;24.880;2023-04-01T19:58:00;2.43;;;1.90;;
5904;SDS011;2978;42.012;24.880;2023-04-01T20:08:17;2.33;;;1.90;;
5904;SDS011;2978;42.012;24.880;2023-04-01T20:10:56;2.97;;;2.13;;
5904;SDS011;2978;42.012;24.880;2023-04-01T20:16:11;4.50;;;2.70;;
5904;SDS011;2978;42.012;24.880;2023-04-01T20:23:41;2.23;;;2.03;;
5904;SDS011;2978;42.012;24.880;2023-04-01T20:26:11;2.43;;;2.20;;
5904;SDS011;2978;42.012;24.880;2023-04-01T20:28:47;2.30;;;1.80;;
5904;SDS011;2978;42.012;24.880;2023-04-01T20:31:29;2.00;;;1.70;;
5904;SDS011;2978;42.012;24.880;2023-04-01T20:34:04;1.90;;;1.73;;
5904;SDS011;2978;42.012;24.880;2023-04-01T20:37:16;2.00;;;1.80;;
5904;SDS011;2978;42.012;24.880;2023-04-01T20:39:52;7.90;;;1.90;;
5904;SDS011;2978;42.012;24.880;2023-04-01T20:42:49;3.20;;;2.37;;
5904;SDS011;2978;42.012;24.880;2023-04-01T20:53:57;5.17;;;4.10;;
5904;SDS011;2978;42.012;24.880;2023-04-01T20:57:02;3.53;;;3.23;;
5904;SDS011;2978;42.012;24.880;2023-04-01T20:59:41;3.50;;;2.60;;
5904;SDS011;2978;42.012;24.880;2023-04-01T21:02:33;7.80;;;2.80;;
5904;SDS011;2978;42.012;24.880;2023-04-01T21:05:42;2.40;;;2.03;;
5904;SDS011;2978;42.012;24.880;2023-04-01T21:13:56;2.00;;;1.80;;
5904;SDS011;2978;42.012;24.880;2023-04-01T21:16:49;2.60;;;2.30;;
5904;SDS011;2978;42.012;24.880;2023-04-01T21:27:59;4.37;;;2.40;;
5904;SDS011;2978;42.012;24.880;2023-04-01T21:39:47;1.70;;;1.60;;
5904;SDS011;2978;42.012;24.880;2023-04-01T21:42:54;1.57;;;1.33;;
5904;SDS011;2978;42.012;24.880;2023-04-01T21:45:23;1.70;;;1.60;;
5904;SDS011;2978;42.012;24.880;2023-04-01T22:05:38;2.30;;;1.53;;
5904;SDS011;2978;42.012;24.880;2023-04-01T22:13:31;1.70;;;1.60;;
5904;SDS011;2978;42.012;24.880;2023-04-01T22:16:23;3.30;;;2.03;;
5904;SDS011;2978;42.012;24.880;2023-04-01T22:27:28;2.00;;;1.50;;
5904;SDS011;2978;42.012;24.880;2023-04-01T22:38:45;1.57;;;1.47;;
5904;SDS011;2978;42.012;24.880;2023-04-01T22:44:12;1.93;;;1.30;;
5904;SDS011;2978;42.012;24.880;2023-04-01T22:49:41;2.50;;;1.33;;
5904;SDS011;2978;42.012;24.880;2023-04-01T22:52:29;0.90;;;0.90;;
5904;SDS011;2978;42.012;24.880;2023-04-01T22:55:09;0.90;;;0.90;;
5904;SDS011;2978;42.012;24.880;2023-04-01T22:57:42;2.00;;;1.17;;
5904;SDS011;2978;42.012;24.880;2023-04-01T23:00:16;1.60;;;1.20;;
5904;SDS011;2978;42.012;24.880;2023-04-01T23:03:07;1.20;;;1.10;;
5904;SDS011;2978;42.012;24.880;2023-04-01T23:05:42;1.20;;;1.10;;
5904;SDS011;2978;42.012;24.880;2023-04-01T23:11:25;1.20;;;0.90;;
5904;SDS011;2978;42.012;24.880;2023-04-01T23:16:33;1.30;;;1.20;;
5904;SDS011;2978;42.012;24.880;2023-04-01T23:19:19;1.20;;;1.10;;
5904;SDS011;2978;42.012;24.880;2023-04-01T23:22:15;1.87;;;1.20;;
5904;SDS011;2978;42.012;24.880;2023-04-01T23:24:50;4.97;;;2.10;;
5904;SDS011;2978;42.012;24.880;2023-04-01T23:27:40;1.90;;;1.80;;
5904;SDS011;2978;42.012;24.880;2023-04-01T23:30:51;1.70;;;1.60;;
5904;SDS011;2978;42.012;24.880;2023-04-01T23:33:10;1.30;;;1.20;;
5904;SDS011;2978;42.012;24.880;2023-04-01T23:35:48;1.33;;;1.23;;
5904;SDS011;2978;42.012;24.880;2023-04-01T23:38:38;1.60;;;1.50;;
5904;SDS011;2978;42.012;24.880;2023-04-01T23:41:07;1.87;;;1.30;;
5904;SDS011;2978;42.012;24.880;2023-04-01T23:43:51;2.37;;;1.23;;
5904;SDS011;2978;42.012;24.880;2023-04-01T23:46:35;1.43;;;1.33;;
5904;SDS011;2978;42.012;24.880;2023-04-01T23:49:03;2.73;;;1.50;;
5904;SDS011;2978;42.012;24.880;2023-04-01T23:51:38;1.40;;;1.30;;
5904;SDS011;2978;42.012;24.880;2023-04-01T23:54:18;4.70;;;1.83;;
5904;SDS011;2978;42.012;24.880;2023-04-01T23:56:53;1.70;;;1.50;;
5904;SDS011;2978;42.012;24.880;2023-04-01T23:59:24;1.47;;;1.37;;
